sensor_id;sensor_type;location;lat;lon;timestamp;P1;durP1;ratioP1;P2;durP2;ratioP2
17570;SDS011;8903;52.220;20.978;2023-03-20T00:00:27;38.27;;;25.10;;
17570;SDS011;8903;52.220;20.978;2023-03-20T00:02:58;39.00;;;24.30;;
17570;SDS011;8903;52.220;20.978;2023-03-20T00:05:26;42.33;;;25.93;;
17570;SDS011;8903;52.220;20.978;2023-03-20T00:07:54;40.33;;;26.63;;
17570;SDS011;8903;52.220;20.978;2023-03-20T00:10:24;51.27;;;27.63;;
17570;SDS011;8903;52.220;20.978;2023-03-20T00:12:54;36.67;;;25.00;;
17570;SDS011;8903;52.220;20.978;2023-03-20T00:15:26;39.20;;;26.10;;
17570;SDS011;8903;52.220;20.978;2023-03-20T00:17:55;40.27;;;26.83;;
17570;SDS011;8903;52.220;20.978;2023-03-20T00:20:24;37.33;;;25.27;;
17570;SDS011;8903;52.220;20.978;2023-03-20T00:22:52;39.33;;;26.70;;
17570;SDS011;8903;52.220;20.978;2023-03-20T00:25:21;40.17;;;27.60;;
17570;SDS011;8903;52.220;20.978;2023-03-20T00:27:50;40.80;;;27.07;;
17570;SDS011;8903;52.220;20.978;2023-03-20T00:30:19;45.80;;;27.67;;
17570;SDS011;8903;52.220;20.978;2023-03-20T00:32:51;39.37;;;26.90;;
17570;SDS011;8903;52.220;20.978;2023-03-20T00:35:24;41.97;;;28.23;;
17570;SDS011;8903;52.220;20.978;2023-03-20T00:37:54;49.43;;;28.27;;
17570;SDS011;8903;52.220;20.978;2023-03-20T00:40:22;41.93;;;27.30;;
17570;SDS011;8903;52.220;20.978;2023-03-20T00:42:55;45.20;;;27.77;;
17570;SDS011;8903;52.220;20.978;2023-03-20T00:45:25;47.47;;;28.10;;
17570;SDS011;8903;52.220;20.978;2023-03-20T00:47:54;43.30;;;28.27;;
17570;SDS011;8903;52.220;20.978;2023-03-20T00:50:24;42.77;;;28.83;;
17570;SDS011;8903;52.220;20.978;2023-03-20T00:52:54;46.93;;;28.13;;
17570;SDS011;8903;52.220;20.978;2023-03-20T00:55:22;44.50;;;28.63;;
17570;SDS011;8903;52.220;20.978;2023-03-20T00:57:51;45.30;;;28.40;;
17570;SDS011;8903;52.220;20.978;2023-03-20T01:00:33;46.93;;;29.33;;
17570;SDS011;8903;52.220;20.978;2023-03-20T01:03:09;43.40;;;28.27;;
17570;SDS011;8903;52.220;20.978;2023-03-20T01:05:40;41.80;;;27.77;;
17570;SDS011;8903;52.220;20.978;2023-03-20T01:08:11;48.80;;;29.27;;
17570;SDS011;8903;52.220;20.978;2023-03-20T01:10:40;44.60;;;28.57;;
17570;SDS011;8903;52.220;20.978;2023-03-20T01:13:12;40.20;;;28.30;;
17570;SDS011;8903;52.220;20.978;2023-03-20T01:15:45;55.13;;;29.90;;
17570;SDS011;8903;52.220;20.978;2023-03-20T01:18:12;47.77;;;27.80;;
17570;SDS011;8903;52.220;20.978;2023-03-20T01:20:42;46.67;;;28.43;;
17570;SDS011;8903;52.220;20.978;2023-03-20T01:23:10;50.37;;;31.00;;
17570;SDS011;8903;52.220;20.978;2023-03-20T01:25:38;43.27;;;29.20;;
17570;SDS011;8903;52.220;20.978;2023-03-20T01:28:13;45.80;;;29.80;;
17570;SDS011;8903;52.220;20.978;2023-03-20T01:30:42;46.23;;;30.03;;
17570;SDS011;8903;52.220;20.978;2023-03-20T01:33:12;47.70;;;29.20;;
17570;SDS011;8903;52.220;20.978;2023-03-20T01:35:43;41.93;;;27.50;;
17570;SDS011;8903;52.220;20.978;2023-03-20T01:38:12;43.97;;;29.50;;
17570;SDS011;8903;52.220;20.978;2023-03-20T01:40:42;44.00;;;27.23;;
17570;SDS011;8903;52.220;20.978;2023-03-20T01:43:16;48.80;;;29.53;;
17570;SDS011;8903;52.220;20.978;2023-03-20T01:45:51;42.30;;;29.53;;
17570;SDS011;8903;52.220;20.978;2023-03-20T01:48:22;41.13;;;28.70;;
17570;SDS011;8903;52.220;20.978;2023-03-20T01:51:02;45.47;;;28.37;;
17570;SDS011;8903;52.220;20.978;2023-03-20T01:53:30;42.37;;;29.40;;
17570;SDS011;8903;52.220;20.978;2023-03-20T01:55:59;48.20;;;29.37;;
17570;SDS011;8903;52.220;20.978;2023-03-20T01:58:37;46.17;;;28.90;;
17570;SDS011;8903;52.220;20.978;2023-03-20T02:01:10;39.80;;;26.90;;
17570;SDS011;8903;52.220;20.978;2023-03-20T02:03:42;46.53;;;27.97;;
17570;SDS011;8903;52.220;20.978;2023-03-20T02:06:17;45.30;;;30.63;;
17570;SDS011;8903;52.220;20.978;2023-03-20T02:09:13;39.20;;;27.70;;
17570;SDS011;8903;52.220;20.978;2023-03-20T02:11:42;48.13;;;28.20;;
17570;SDS011;8903;52.220;20.978;2023-03-20T02:14:11;42.83;;;30.27;;
17570;SDS011;8903;52.220;20.978;2023-03-20T02:16:51;44.87;;;29.20;;
17570;SDS011;8903;52.220;20.978;2023-03-20T02:19:25;41.00;;;27.83;;
17570;SDS011;8903;52.220;20.978;2023-03-20T02:27:58;45.30;;;28.40;;
17570;SDS011;8903;52.220;20.978;2023-03-20T02:30:53;44.40;;;28.10;;
17570;SDS011;8903;52.220;20.978;2023-03-20T02:33:48;44.57;;;28.07;;
17570;SDS011;8903;52.220;20.978;2023-03-20T02:36:45;50.10;;;29.50;;
17570;SDS011;8903;52.220;20.978;2023-03-20T02:39:40;41.87;;;27.80;;
17570;SDS011;8903;52.220;20.978;2023-03-20T02:42:16;43.17;;;28.30;;
17570;SDS011;8903;52.220;20.978;2023-03-20T02:44:52;46.07;;;29.60;;
17570;SDS011;8903;52.220;20.978;2023-03-20T02:47:30;55.73;;;29.73;;
17570;SDS011;8903;52.220;20.978;2023-03-20T02:50:12;47.73;;;30.27;;
17570;SDS011;8903;52.220;20.978;2023-03-20T02:52:43;50.77;;;29.07;;
17570;SDS011;8903;52.220;20.978;2023-03-20T02:55:17;43.93;;;28.63;;
17570;SDS011;8903;52.220;20.978;2023-03-20T02:57:56;42.03;;;28.53;;
17570;SDS011;8903;52.220;20.978;2023-03-20T03:00:32;45.00;;;28.37;;
17570;SDS011;8903;52.220;20.978;2023-03-20T03:03:05;43.37;;;28.20;;
17570;SDS011;8903;52.220;20.978;2023-03-20T03:05:39;44.93;;;29.40;;
17570;SDS011;8903;52.220;20.978;2023-03-20T03:08:12;47.03;;;29.73;;
17570;SDS011;8903;52.220;20.978;2023-03-20T03:10:43;48.80;;;29.50;;
17570;SDS011;8903;52.220;20.978;2023-03-20T03:13:14;50.30;;;28.93;;
17570;SDS011;8903;52.220;20.978;2023-03-20T03:15:46;40.37;;;27.60;;
17570;SDS011;8903;52.220;20.978;2023-03-20T03:18:17;48.77;;;29.73;;
17570;SDS011;8903;52.220;20.978;2023-03-20T03:20:47;50.60;;;30.67;;
17570;SDS011;8903;52.220;20.978;2023-03-20T03:23:20;44.70;;;29.03;;
17570;SDS011;8903;52.220;20.978;2023-03-20T03:25:53;50.20;;;30.40;;
17570;SDS011;8903;52.220;20.978;2023-03-20T03:28:25;47.70;;;31.40;;
17570;SDS011;8903;52.220;20.978;2023-03-20T03:31:01;51.67;;;29.57;;
17570;SDS011;8903;52.220;20.978;2023-03-20T03:33:31;49.47;;;29.73;;
17570;SDS011;8903;52.220;20.978;2023-03-20T03:36:02;48.13;;;29.50;;
17570;SDS011;8903;52.220;20.978;2023-03-20T03:38:36;43.90;;;28.10;;
17570;SDS011;8903;52.220;20.978;2023-03-20T03:41:17;46.23;;;28.53;;
17570;SDS011;8903;52.220;20.978;2023-03-20T03:43:50;46.03;;;30.13;;
17570;SDS011;8903;52.220;20.978;2023-03-20T03:46:23;42.70;;;29.07;;
17570;SDS011;8903;52.220;20.978;2023-03-20T03:48:55;46.50;;;29.83;;
17570;SDS011;8903;52.220;20.978;2023-03-20T03:51:24;52.00;;;30.73;;
17570;SDS011;8903;52.220;20.978;2023-03-20T03:54:04;44.70;;;29.73;;
17570;SDS011;8903;52.220;20.978;2023-03-20T03:56:38;40.37;;;27.20;;
17570;SDS011;8903;52.220;20.978;2023-03-20T03:59:09;45.97;;;30.23;;
17570;SDS011;8903;52.220;20.978;2023-03-20T04:01:39;54.37;;;29.77;;
17570;SDS011;8903;52.220;20.978;2023-03-20T04:04:09;46.50;;;29.20;;
17570;SDS011;8903;52.220;20.978;2023-03-20T04:06:37;49.73;;;30.73;;
17570;SDS011;8903;52.220;20.978;2023-03-20T04:09:06;47.13;;;29.70;;
17570;SDS011;8903;52.220;20.978;2023-03-20T04:11:34;47.30;;;30.47;;
17570;SDS011;8903;52.220;20.978;2023-03-20T04:14:03;46.13;;;28.43;;
17570;SDS011;8903;52.220;20.978;2023-03-20T04:16:30;45.97;;;29.20;;
17570;SDS011;8903;52.220;20.978;2023-03-20T04:18:57;45.53;;;27.80;;
17570;SDS011;8903;52.220;20.978;2023-03-20T04:21:24;47.03;;;28.30;;
17570;SDS011;8903;52.220;20.978;2023-03-20T04:23:51;52.00;;;31.77;;
17570;SDS011;8903;52.220;20.978;2023-03-20T04:26:20;41.40;;;28.17;;
17570;SDS011;8903;52.220;20.978;2023-03-20T04:28:48;51.20;;;30.00;;
17570;SDS011;8903;52.220;20.978;2023-03-20T04:31:36;43.30;;;26.70;;
17570;SDS011;8903;52.220;20.978;2023-03-20T04:34:15;49.37;;;31.10;;
17570;SDS011;8903;52.220;20.978;2023-03-20T04:36:57;52.90;;;28.40;;
17570;SDS011;8903;52.220;20.978;2023-03-20T04:39:34;45.10;;;30.67;;
17570;SDS011;8903;52.220;20.978;2023-03-20T04:42:02;48.27;;;30.30;;
17570;SDS011;8903;52.220;20.978;2023-03-20T04:44:29;47.47;;;29.07;;
17570;SDS011;8903;52.220;20.978;2023-03-20T04:46:58;48.60;;;29.20;;
17570;SDS011;8903;52.220;20.978;2023-03-20T04:49:25;51.67;;;31.97;;
17570;SDS011;8903;52.220;20.978;2023-03-20T04:51:53;46.20;;;30.00;;
17570;SDS011;8903;52.220;20.978;2023-03-20T04:54:34;61.33;;;30.83;;
17570;SDS011;8903;52.220;20.978;2023-03-20T04:57:01;46.97;;;30.20;;
17570;SDS011;8903;52.220;20.978;2023-03-20T04:59:29;43.60;;;28.73;;
17570;SDS011;8903;52.220;20.978;2023-03-20T05:01:57;49.50;;;30.83;;
17570;SDS011;8903;52.220;20.978;2023-03-20T05:04:24;43.27;;;28.97;;
17570;SDS011;8903;52.220;20.978;2023-03-20T05:06:52;48.37;;;30.10;;
17570;SDS011;8903;52.220;20.978;2023-03-20T05:09:26;50.23;;;29.33;;
17570;SDS011;8903;52.220;20.978;2023-03-20T05:11:55;39.83;;;27.57;;
17570;SDS011;8903;52.220;20.978;2023-03-20T05:14:58;53.30;;;30.23;;
17570;SDS011;8903;52.220;20.978;2023-03-20T05:17:53;46.23;;;29.27;;
17570;SDS011;8903;52.220;20.978;2023-03-20T05:20:39;46.20;;;29.27;;
17570;SDS011;8903;52.220;20.978;2023-03-20T05:23:39;49.47;;;30.10;;
17570;SDS011;8903;52.220;20.978;2023-03-20T05:26:32;43.00;;;26.80;;
17570;SDS011;8903;52.220;20.978;2023-03-20T05:29:08;53.70;;;27.43;;
17570;SDS011;8903;52.220;20.978;2023-03-20T05:31:54;46.87;;;29.87;;
17570;SDS011;8903;52.220;20.978;2023-03-20T05:34:46;45.13;;;29.33;;
17570;SDS011;8903;52.220;20.978;2023-03-20T05:37:20;45.17;;;29.57;;
17570;SDS011;8903;52.220;20.978;2023-03-20T05:40:14;41.97;;;29.40;;
17570;SDS011;8903;52.220;20.978;2023-03-20T05:43:15;42.40;;;29.10;;
17570;SDS011;8903;52.220;20.978;2023-03-20T05:45:59;46.33;;;29.60;;
17570;SDS011;8903;52.220;20.978;2023-03-20T05:48:32;46.30;;;28.57;;
17570;SDS011;8903;52.220;20.978;2023-03-20T05:51:12;44.33;;;27.10;;
17570;SDS011;8903;52.220;20.978;2023-03-20T05:54:07;48.20;;;28.80;;
17570;SDS011;8903;52.220;20.978;2023-03-20T05:56:52;45.20;;;27.93;;
17570;SDS011;8903;52.220;20.978;2023-03-20T05:59:42;47.20;;;27.63;;
17570;SDS011;8903;52.220;20.978;2023-03-20T06:02:28;48.30;;;27.13;;
17570;SDS011;8903;52.220;20.978;2023-03-20T06:05:05;39.20;;;26.63;;
17570;SDS011;8903;52.220;20.978;2023-03-20T06:07:42;48.60;;;28.57;;
17570;SDS011;8903;52.220;20.978;2023-03-20T06:10:13;41.93;;;25.40;;
17570;SDS011;8903;52.220;20.978;2023-03-20T06:12:42;46.67;;;28.67;;
17570;SDS011;8903;52.220;20.978;2023-03-20T06:15:10;40.63;;;27.20;;
17570;SDS011;8903;52.220;20.978;2023-03-20T06:17:42;44.37;;;28.60;;
17570;SDS011;8903;52.220;20.978;2023-03-20T06:20:11;46.40;;;27.43;;
17570;SDS011;8903;52.220;20.978;2023-03-20T06:22:38;45.40;;;27.57;;
17570;SDS011;8903;52.220;20.978;2023-03-20T06:25:08;52.30;;;29.77;;
17570;SDS011;8903;52.220;20.978;2023-03-20T06:27:40;45.70;;;27.97;;
17570;SDS011;8903;52.220;20.978;2023-03-20T06:30:08;43.33;;;28.67;;
17570;SDS011;8903;52.220;20.978;2023-03-20T06:32:37;48.33;;;30.23;;
17570;SDS011;8903;52.220;20.978;2023-03-20T06:35:08;45.57;;;29.20;;
17570;SDS011;8903;52.220;20.978;2023-03-20T06:37:37;47.73;;;31.50;;
17570;SDS011;8903;52.220;20.978;2023-03-20T06:40:14;52.57;;;30.40;;
17570;SDS011;8903;52.220;20.978;2023-03-20T06:42:44;55.90;;;33.23;;
17570;SDS011;8903;52.220;20.978;2023-03-20T06:45:11;56.97;;;35.33;;
17570;SDS011;8903;52.220;20.978;2023-03-20T06:47:46;65.77;;;33.23;;
17570;SDS011;8903;52.220;20.978;2023-03-20T06:50:13;50.03;;;32.43;;
17570;SDS011;8903;52.220;20.978;2023-03-20T06:52:41;58.63;;;35.13;;
17570;SDS011;8903;52.220;20.978;2023-03-20T06:55:30;59.43;;;34.67;;
17570;SDS011;8903;52.220;20.978;2023-03-20T06:57:57;58.47;;;35.07;;
17570;SDS011;8903;52.220;20.978;2023-03-20T07:00:25;54.77;;;34.93;;
17570;SDS011;8903;52.220;20.978;2023-03-20T07:02:53;50.97;;;34.50;;
17570;SDS011;8903;52.220;20.978;2023-03-20T07:05:20;58.30;;;35.00;;
17570;SDS011;8903;52.220;20.978;2023-03-20T07:07:47;54.23;;;35.33;;
17570;SDS011;8903;52.220;20.978;2023-03-20T07:10:14;50.50;;;34.90;;
17570;SDS011;8903;52.220;20.978;2023-03-20T07:12:49;59.87;;;35.90;;
17570;SDS011;8903;52.220;20.978;2023-03-20T07:15:16;68.83;;;37.70;;
17570;SDS011;8903;52.220;20.978;2023-03-20T07:17:43;52.20;;;36.40;;
17570;SDS011;8903;52.220;20.978;2023-03-20T07:20:12;59.83;;;39.43;;
17570;SDS011;8903;52.220;20.978;2023-03-20T07:22:39;57.53;;;36.27;;
17570;SDS011;8903;52.220;20.978;2023-03-20T07:25:27;61.00;;;39.60;;
17570;SDS011;8903;52.220;20.978;2023-03-20T07:27:56;59.13;;;36.23;;
17570;SDS011;8903;52.220;20.978;2023-03-20T07:30:25;62.87;;;36.20;;
17570;SDS011;8903;52.220;20.978;2023-03-20T07:32:53;61.97;;;36.43;;
17570;SDS011;8903;52.220;20.978;2023-03-20T07:35:23;53.73;;;34.83;;
17570;SDS011;8903;52.220;20.978;2023-03-20T07:37:50;61.43;;;35.43;;
17570;SDS011;8903;52.220;20.978;2023-03-20T07:40:17;64.87;;;34.23;;
17570;SDS011;8903;52.220;20.978;2023-03-20T07:42:58;65.00;;;35.20;;
17570;SDS011;8903;52.220;20.978;2023-03-20T07:45:46;66.40;;;35.40;;
17570;SDS011;8903;52.220;20.978;2023-03-20T07:48:13;67.40;;;36.70;;
17570;SDS011;8903;52.220;20.978;2023-03-20T07:50:40;58.40;;;31.83;;
17570;SDS011;8903;52.220;20.978;2023-03-20T07:53:07;67.23;;;35.17;;
17570;SDS011;8903;52.220;20.978;2023-03-20T07:55:34;72.10;;;33.60;;
17570;SDS011;8903;52.220;20.978;2023-03-20T07:58:03;50.40;;;29.80;;
17570;SDS011;8903;52.220;20.978;2023-03-20T08:00:32;53.93;;;31.47;;
17570;SDS011;8903;52.220;20.978;2023-03-20T08:02:59;50.37;;;32.03;;
17570;SDS011;8903;52.220;20.978;2023-03-20T08:05:26;44.43;;;31.07;;
17570;SDS011;8903;52.220;20.978;2023-03-20T08:07:53;43.90;;;31.27;;
17570;SDS011;8903;52.220;20.978;2023-03-20T08:10:20;47.10;;;33.17;;
17570;SDS011;8903;52.220;20.978;2023-03-20T08:12:47;52.40;;;33.83;;
17570;SDS011;8903;52.220;20.978;2023-03-20T08:15:16;54.63;;;34.43;;
17570;SDS011;8903;52.220;20.978;2023-03-20T08:17:43;59.63;;;35.03;;
17570;SDS011;8903;52.220;20.978;2023-03-20T08:20:11;53.80;;;34.53;;
17570;SDS011;8903;52.220;20.978;2023-03-20T08:22:40;60.10;;;34.20;;
17570;SDS011;8903;52.220;20.978;2023-03-20T08:25:08;50.73;;;35.87;;
17570;SDS011;8903;52.220;20.978;2023-03-20T08:27:36;52.90;;;33.23;;
17570;SDS011;8903;52.220;20.978;2023-03-20T08:30:04;48.27;;;31.83;;
17570;SDS011;8903;52.220;20.978;2023-03-20T08:32:33;49.17;;;30.77;;
17570;SDS011;8903;52.220;20.978;2023-03-20T08:35:00;46.80;;;30.30;;
17570;SDS011;8903;52.220;20.978;2023-03-20T08:37:27;44.90;;;28.67;;
17570;SDS011;8903;52.220;20.978;2023-03-20T08:39:54;42.83;;;29.40;;
17570;SDS011;8903;52.220;20.978;2023-03-20T08:42:21;41.87;;;28.70;;
17570;SDS011;8903;52.220;20.978;2023-03-20T08:44:48;44.80;;;26.80;;
17570;SDS011;8903;52.220;20.978;2023-03-20T08:47:16;43.17;;;29.17;;
17570;SDS011;8903;52.220;20.978;2023-03-20T08:49:45;43.30;;;26.90;;
17570;SDS011;8903;52.220;20.978;2023-03-20T08:52:12;45.73;;;28.33;;
17570;SDS011;8903;52.220;20.978;2023-03-20T08:54:39;53.60;;;31.50;;
17570;SDS011;8903;52.220;20.978;2023-03-20T08:57:06;42.80;;;28.40;;
17570;SDS011;8903;52.220;20.978;2023-03-20T08:59:33;43.33;;;27.43;;
17570;SDS011;8903;52.220;20.978;2023-03-20T09:02:00;43.37;;;25.90;;
17570;SDS011;8903;52.220;20.978;2023-03-20T09:04:28;42.70;;;26.23;;
17570;SDS011;8903;52.220;20.978;2023-03-20T09:06:56;32.83;;;22.70;;
17570;SDS011;8903;52.220;20.978;2023-03-20T09:09:25;34.60;;;23.83;;
17570;SDS011;8903;52.220;20.978;2023-03-20T09:11:53;41.93;;;25.20;;
17570;SDS011;8903;52.220;20.978;2023-03-20T09:14:21;34.47;;;24.07;;
17570;SDS011;8903;52.220;20.978;2023-03-20T09:16:48;33.73;;;21.87;;
17570;SDS011;8903;52.220;20.978;2023-03-20T09:19:15;33.83;;;21.23;;
17570;SDS011;8903;52.220;20.978;2023-03-20T09:21:43;33.57;;;20.80;;
17570;SDS011;8903;52.220;20.978;2023-03-20T09:24:11;37.40;;;21.60;;
17570;SDS011;8903;52.220;20.978;2023-03-20T09:26:39;31.27;;;18.97;;
17570;SDS011;8903;52.220;20.978;2023-03-20T09:29:06;32.97;;;20.80;;
17570;SDS011;8903;52.220;20.978;2023-03-20T09:31:33;32.50;;;19.60;;
17570;SDS011;8903;52.220;20.978;2023-03-20T09:34:00;29.50;;;20.47;;
17570;SDS011;8903;52.220;20.978;2023-03-20T09:36:27;32.17;;;20.17;;
17570;SDS011;8903;52.220;20.978;2023-03-20T09:38:54;32.10;;;18.37;;
17570;SDS011;8903;52.220;20.978;2023-03-20T09:41:23;35.93;;;20.27;;
17570;SDS011;8903;52.220;20.978;2023-03-20T09:43:55;31.83;;;19.93;;
17570;SDS011;8903;52.220;20.978;2023-03-20T09:46:40;27.83;;;19.37;;
17570;SDS011;8903;52.220;20.978;2023-03-20T09:49:27;24.20;;;18.90;;
17570;SDS011;8903;52.220;20.978;2023-03-20T09:52:03;23.27;;;17.50;;
17570;SDS011;8903;52.220;20.978;2023-03-20T09:54:42;27.10;;;20.23;;
17570;SDS011;8903;52.220;20.978;2023-03-20T09:57:16;27.67;;;18.87;;
17570;SDS011;8903;52.220;20.978;2023-03-20T09:59:47;27.60;;;19.30;;
17570;SDS011;8903;52.220;20.978;2023-03-20T10:02:17;27.60;;;18.07;;
17570;SDS011;8903;52.220;20.978;2023-03-20T10:04:48;34.53;;;18.83;;
17570;SDS011;8903;52.220;20.978;2023-03-20T10:07:18;23.90;;;16.57;;
17570;SDS011;8903;52.220;20.978;2023-03-20T10:09:47;23.70;;;16.80;;
17570;SDS011;8903;52.220;20.978;2023-03-20T10:15:12;24.90;;;18.20;;
17570;SDS011;8903;52.220;20.978;2023-03-20T10:17:48;23.93;;;17.60;;
17570;SDS011;8903;52.220;20.978;2023-03-20T10:20:21;30.50;;;18.43;;
17570;SDS011;8903;52.220;20.978;2023-03-20T10:22:54;27.70;;;19.10;;
17570;SDS011;8903;52.220;20.978;2023-03-20T10:25:27;29.30;;;20.27;;
17570;SDS011;8903;52.220;20.978;2023-03-20T10:27:59;32.20;;;20.20;;
17570;SDS011;8903;52.220;20.978;2023-03-20T10:30:40;30.63;;;21.30;;
17570;SDS011;8903;52.220;20.978;2023-03-20T10:33:18;38.37;;;23.33;;
17570;SDS011;8903;52.220;20.978;2023-03-20T10:35:58;30.03;;;20.00;;
17570;SDS011;8903;52.220;20.978;2023-03-20T10:38:35;37.03;;;23.50;;
17570;SDS011;8903;52.220;20.978;2023-03-20T10:41:08;34.40;;;22.67;;
17570;SDS011;8903;52.220;20.978;2023-03-20T10:43:41;35.03;;;26.03;;
17570;SDS011;8903;52.220;20.978;2023-03-20T10:46:11;48.70;;;28.93;;
17570;SDS011;8903;52.220;20.978;2023-03-20T10:48:42;54.30;;;29.30;;
17570;SDS011;8903;52.220;20.978;2023-03-20T10:51:13;48.90;;;29.80;;
17570;SDS011;8903;52.220;20.978;2023-03-20T10:53:44;45.50;;;31.07;;
17570;SDS011;8903;52.220;20.978;2023-03-20T10:56:14;46.97;;;33.70;;
17570;SDS011;8903;52.220;20.978;2023-03-20T10:58:48;46.80;;;33.63;;
17570;SDS011;8903;52.220;20.978;2023-03-20T11:01:23;52.67;;;33.90;;
17570;SDS011;8903;52.220;20.978;2023-03-20T11:03:50;47.87;;;32.50;;
17570;SDS011;8903;52.220;20.978;2023-03-20T11:06:18;41.83;;;28.83;;
17570;SDS011;8903;52.220;20.978;2023-03-20T11:08:49;40.30;;;26.30;;
17570;SDS011;8903;52.220;20.978;2023-03-20T11:11:22;43.03;;;27.87;;
17570;SDS011;8903;52.220;20.978;2023-03-20T11:13:52;43.00;;;30.80;;
17570;SDS011;8903;52.220;20.978;2023-03-20T11:16:20;43.10;;;28.17;;
17570;SDS011;8903;52.220;20.978;2023-03-20T11:18:49;41.63;;;28.43;;
17570;SDS011;8903;52.220;20.978;2023-03-20T11:21:19;42.87;;;27.23;;
17570;SDS011;8903;52.220;20.978;2023-03-20T11:23:48;53.50;;;32.40;;
17570;SDS011;8903;52.220;20.978;2023-03-20T11:26:16;51.20;;;31.13;;
17570;SDS011;8903;52.220;20.978;2023-03-20T11:28:53;43.43;;;30.23;;
17570;SDS011;8903;52.220;20.978;2023-03-20T11:31:23;41.53;;;27.73;;
17570;SDS011;8903;52.220;20.978;2023-03-20T11:33:59;44.47;;;29.33;;
17570;SDS011;8903;52.220;20.978;2023-03-20T11:36:36;44.10;;;30.23;;
17570;SDS011;8903;52.220;20.978;2023-03-20T11:39:06;43.90;;;30.00;;
17570;SDS011;8903;52.220;20.978;2023-03-20T11:41:40;49.07;;;26.27;;
17570;SDS011;8903;52.220;20.978;2023-03-20T11:44:21;40.10;;;25.60;;
17570;SDS011;8903;52.220;20.978;2023-03-20T11:46:53;31.60;;;23.00;;
17570;SDS011;8903;52.220;20.978;2023-03-20T11:49:22;47.00;;;24.50;;
17570;SDS011;8903;52.220;20.978;2023-03-20T11:51:52;37.00;;;23.97;;
17570;SDS011;8903;52.220;20.978;2023-03-20T11:54:21;34.33;;;26.30;;
17570;SDS011;8903;52.220;20.978;2023-03-20T11:56:52;45.40;;;25.93;;
17570;SDS011;8903;52.220;20.978;2023-03-20T11:59:22;39.13;;;26.73;;
17570;SDS011;8903;52.220;20.978;2023-03-20T12:01:55;36.13;;;25.57;;
17570;SDS011;8903;52.220;20.978;2023-03-20T12:04:26;33.70;;;25.70;;
17570;SDS011;8903;52.220;20.978;2023-03-20T12:06:55;35.30;;;26.50;;
17570;SDS011;8903;52.220;20.978;2023-03-20T12:09:28;49.23;;;30.57;;
17570;SDS011;8903;52.220;20.978;2023-03-20T12:12:01;44.73;;;27.33;;
17570;SDS011;8903;52.220;20.978;2023-03-20T12:14:34;37.63;;;26.13;;
17570;SDS011;8903;52.220;20.978;2023-03-20T12:19:59;45.57;;;29.07;;
17570;SDS011;8903;52.220;20.978;2023-03-20T12:22:33;35.70;;;26.60;;
17570;SDS011;8903;52.220;20.978;2023-03-20T12:25:06;38.23;;;26.67;;
17570;SDS011;8903;52.220;20.978;2023-03-20T12:27:42;41.60;;;27.70;;
17570;SDS011;8903;52.220;20.978;2023-03-20T12:30:17;32.47;;;26.60;;
17570;SDS011;8903;52.220;20.978;2023-03-20T12:32:52;36.17;;;26.97;;
17570;SDS011;8903;52.220;20.978;2023-03-20T12:35:29;45.10;;;29.90;;
17570;SDS011;8903;52.220;20.978;2023-03-20T12:37:56;40.50;;;29.87;;
17570;SDS011;8903;52.220;20.978;2023-03-20T12:40:38;38.63;;;28.20;;
17570;SDS011;8903;52.220;20.978;2023-03-20T12:43:10;45.53;;;27.70;;
17570;SDS011;8903;52.220;20.978;2023-03-20T12:45:44;39.97;;;29.13;;
17570;SDS011;8903;52.220;20.978;2023-03-20T12:48:23;34.37;;;26.47;;
17570;SDS011;8903;52.220;20.978;2023-03-20T12:51:04;39.07;;;27.30;;
17570;SDS011;8903;52.220;20.978;2023-03-20T12:53:39;39.60;;;27.33;;
17570;SDS011;8903;52.220;20.978;2023-03-20T12:56:21;48.87;;;29.90;;
17570;SDS011;8903;52.220;20.978;2023-03-20T12:59:06;39.27;;;28.70;;
17570;SDS011;8903;52.220;20.978;2023-03-20T13:01:44;43.17;;;28.73;;
17570;SDS011;8903;52.220;20.978;2023-03-20T13:04:39;39.80;;;25.10;;
17570;SDS011;8903;52.220;20.978;2023-03-20T13:07:18;36.07;;;27.27;;
17570;SDS011;8903;52.220;20.978;2023-03-20T13:09:50;38.07;;;25.93;;
17570;SDS011;8903;52.220;20.978;2023-03-20T13:12:37;36.60;;;24.60;;
17570;SDS011;8903;52.220;20.978;2023-03-20T13:15:18;38.50;;;28.03;;
17570;SDS011;8903;52.220;20.978;2023-03-20T13:17:55;29.10;;;24.00;;
17570;SDS011;8903;52.220;20.978;2023-03-20T13:20:27;29.47;;;22.67;;
17570;SDS011;8903;52.220;20.978;2023-03-20T13:23:03;37.13;;;24.80;;
17570;SDS011;8903;52.220;20.978;2023-03-20T13:26:00;30.13;;;23.83;;
17570;SDS011;8903;52.220;20.978;2023-03-20T13:28:44;30.33;;;22.43;;
17570;SDS011;8903;52.220;20.978;2023-03-20T13:31:20;34.77;;;23.83;;
17570;SDS011;8903;52.220;20.978;2023-03-20T13:34:01;32.70;;;25.07;;
17570;SDS011;8903;52.220;20.978;2023-03-20T13:36:41;36.87;;;26.73;;
17570;SDS011;8903;52.220;20.978;2023-03-20T13:39:17;43.20;;;29.93;;
17570;SDS011;8903;52.220;20.978;2023-03-20T13:41:47;41.47;;;30.27;;
17570;SDS011;8903;52.220;20.978;2023-03-20T13:44:16;42.23;;;31.13;;
17570;SDS011;8903;52.220;20.978;2023-03-20T13:46:46;42.00;;;30.83;;
17570;SDS011;8903;52.220;20.978;2023-03-20T13:49:19;39.30;;;31.90;;
17570;SDS011;8903;52.220;20.978;2023-03-20T13:51:53;51.03;;;33.47;;
17570;SDS011;8903;52.220;20.978;2023-03-20T13:54:39;45.27;;;33.50;;
17570;SDS011;8903;52.220;20.978;2023-03-20T13:57:25;54.07;;;34.40;;
17570;SDS011;8903;52.220;20.978;2023-03-20T14:00:05;48.97;;;34.87;;
17570;SDS011;8903;52.220;20.978;2023-03-20T14:02:50;42.60;;;32.90;;
17570;SDS011;8903;52.220;20.978;2023-03-20T14:05:42;52.50;;;32.60;;
17570;SDS011;8903;52.220;20.978;2023-03-20T14:08:19;39.80;;;30.70;;
17570;SDS011;8903;52.220;20.978;2023-03-20T14:11:05;39.30;;;29.43;;
17570;SDS011;8903;52.220;20.978;2023-03-20T14:13:40;40.60;;;28.53;;
17570;SDS011;8903;52.220;20.978;2023-03-20T14:16:12;42.97;;;28.80;;
17570;SDS011;8903;52.220;20.978;2023-03-20T14:18:41;38.10;;;27.80;;
17570;SDS011;8903;52.220;20.978;2023-03-20T14:21:12;43.33;;;27.53;;
17570;SDS011;8903;52.220;20.978;2023-03-20T14:23:41;37.20;;;25.07;;
17570;SDS011;8903;52.220;20.978;2023-03-20T14:26:17;33.00;;;25.40;;
17570;SDS011;8903;52.220;20.978;2023-03-20T14:28:57;33.17;;;27.07;;
17570;SDS011;8903;52.220;20.978;2023-03-20T14:31:27;29.43;;;24.47;;
17570;SDS011;8903;52.220;20.978;2023-03-20T14:34:16;34.27;;;25.63;;
17570;SDS011;8903;52.220;20.978;2023-03-20T14:39:33;33.63;;;25.00;;
17570;SDS011;8903;52.220;20.978;2023-03-20T14:42:18;30.60;;;23.90;;
17570;SDS011;8903;52.220;20.978;2023-03-20T14:45:15;37.73;;;26.67;;
17570;SDS011;8903;52.220;20.978;2023-03-20T14:47:59;34.33;;;25.57;;
17570;SDS011;8903;52.220;20.978;2023-03-20T14:50:33;33.80;;;26.83;;
17570;SDS011;8903;52.220;20.978;2023-03-20T14:53:12;32.73;;;27.53;;
17570;SDS011;8903;52.220;20.978;2023-03-20T14:58:45;37.70;;;29.80;;
17570;SDS011;8903;52.220;20.978;2023-03-20T15:01:16;42.20;;;30.60;;
17570;SDS011;8903;52.220;20.978;2023-03-20T15:03:49;29.63;;;24.63;;
17570;SDS011;8903;52.220;20.978;2023-03-20T15:06:21;33.13;;;23.30;;
17570;SDS011;8903;52.220;20.978;2023-03-20T15:08:53;22.07;;;18.70;;
17570;SDS011;8903;52.220;20.978;2023-03-20T15:11:23;21.80;;;17.97;;
17570;SDS011;8903;52.220;20.978;2023-03-20T15:13:51;21.90;;;17.73;;